Tiempo atmosférico en la estación meteorológica de San Bartolome Tirajana, El Matorral, Las Palmas (41 m.)



Fecha
DESCASC
Temp. máxima en grados centígrados (hora)
DESCASC
Temp. mínima en grados centígrados (hora)
DESCASC
Temp. media en grados centígrados
DESCASC
Racha de viento máxima en m/sg (hora)
DESCASC
Velocidad máxima media en intervalos de 10 minutos(hora)
DESCASC
Precipitaciones diarias en mm
DESCASC
Precipitaciones de 00:00 a 06:00 en mm
DESCASC
Precipitaciones de 06:00 a 12:00 en mm
DESCASC
Precipitaciones de 12:00 a 18:00 en mm
DESCASC
Precipitaciones de 18:00 a 24:00 en mm
DESCASC
15-08-2019 30.4 (14:20) 19.5 (06:20) 24.9 15 (13:00) 9.17 (11:40) 0 0 0 0 0
14-08-2019 31.4 (14:40) 21.3 (00:00) 26.3 15.28 (13:00) 9.17 (13:00) 0 0 0 0 0
13-08-2019 28.9 (13:00) 21.6 (00:00) 25.3 20 (13:50) 12.5 (17:40) 0 0 0 0 0
12-08-2019 29.6 (17:00) 23.4 (00:00) 26.5 18.89 (15:20) 12.5 (15:20) 0 0 0 0 0
11-08-2019 28.3 (12:30) 22.2 (00:00) 25.3 20.56 (03:40) 12.78 (01:40) 0 0 0 0 0
10-08-2019 29.7 (17:10) 22.3 (00:00) 26 17.5 (23:59) 11.11 (23:59) 0 0 0 0 0
09-08-2019 29 (14:20) 21.2 (00:00) 25.1 11.94 (11:00) 7.78 (11:20) 0 0 0 0 0
08-08-2019 26.7 (17:20) 20.8 (00:00) 23.8 11.39 (13:20) 6.67 (13:20) 0 0 0 0 0
07-08-2019 28 (12:10) 21.1 (00:00) 24.6 13.89 (16:30) 8.61 (16:00) 0 0 0 0 0
06-08-2019 30.1 (16:30) 20.8 (00:00) 25.4 16.11 (01:50) 9.72 (04:20) 0 0 0 0 0
05-08-2019 30.2 (14:50) 21 (00:00) 25.6 16.67 (11:40) 10.83 (12:40) 0 0 0 0 0
04-08-2019 28.6 (14:30) 20.1 (00:00) 24.4 17.5 (15:20) 11.39 (15:20) 0 0 0 0 0
03-08-2019 27.7 (14:30) 20.3 (00:00) 24 16.39 (16:10) 10 (15:40) 0 0 0 0 0
02-08-2019 28.2 (17:00) 20 (00:00) 24.1 15.83 (18:50) 9.17 (19:10) 0 0 0 0 0
01-08-2019 28.3 (14:20) 18.4 (00:00) 23.3 14.17 (17:50) 8.61 (12:40) 0 0 0 0 0
31-07-2019 28.1 (16:00) 20.8 (00:00) 24.4 14.72 (01:10) 9.17 (00:30) 0 0 0 0 0
30-07-2019 28.2 (16:00) 21.2 (00:00) 24.7 18.33 (01:20) 12.22 (01:20) 0 0 0 0 0
29-07-2019 29 (15:00) 21.2 (00:00) 25.1 21.11 (22:30) 13.33 (22:30) 0 0 0 0 0
28-07-2019 29.1 (15:40) 21.2 (00:00) 25.2 18.89 (05:10) 11.39 (01:20) 0 0 0 0 0
27-07-2019 27 (15:20) 21.2 (00:00) 24.1 19.72 (01:30) 11.67 (02:10) 0 0 0 0 0
26-07-2019 27.9 (16:20) 22.3 (00:00) 25.1 20 (17:00) 13.33 (17:20) 0 0 0 0 0
25-07-2019 32.7 (14:00) 21.5 (00:00) 27.1 17.5 (10:40) 10.83 (13:10) 0 0 0 0 0
24-07-2019 34.1 (16:00) 20.3 (00:00) 27.2 15.28 (18:50) 9.72 (15:40) 0 0 0 0 0
23-07-2019 27.3 (16:20) 19 (00:00) 23.1 16.39 (15:20) 10.28 (15:20) 0 0 0 0 0
22-07-2019 27.8 (15:20) 20.4 (00:00) 24.1 16.67 (12:40) 10 (15:50) 0 0 0 0 0
21-07-2019 27 (13:50) 20.9 (00:00) 23.9 17.5 (16:30) 10.56 (00:10) 0 0 0 0 0
20-07-2019 28 (16:30) 20.7 (00:00) 24.4 17.22 (19:40) 11.11 (15:00) 0 0 0 0 0
19-07-2019 28 (14:50) 18.9 (00:00) 23.4 19.72 (13:50) 11.94 (13:50) 0 0 0 0 0

Gráficas

Temp. máximas Temp. mínimas Temp. medias Precipitaciones Rachas de viento máximas Velocidades máximas media en intervalos de 10 minutos

Datos horarios

Fecha y hora oficial Temperatura (ºC) Velocidad del viento (km/h) Dirección del viento Racha (km/h) Dirección de racha Precipitación (mm) Presión (hPa) Tendencia (hPa) Humedad (%)
2019-08-17 23:00:00 31.3 27 Nordeste 46 Nordeste 0 -- -- 28
2019-08-17 22:00:00 31.7 25 Nordeste 47 Nordeste 0 -- -- 28
2019-08-17 21:00:00 31.3 23 Nordeste 43 Norte 0 -- -- 30
2019-08-17 20:00:00 32.8 18 Nordeste 40 Nordeste 0 -- -- 29
2019-08-17 19:00:00 29.9 27 Nordeste 49 Nordeste 0 -- -- 50
2019-08-17 18:00:00 32.6 21 Nordeste 44 Nordeste 0 -- -- 44
2019-08-17 17:00:00 33.3 27 Nordeste 53 Nordeste 0 -- -- 41
2019-08-17 16:00:00 32.5 24 Nordeste 45 Nordeste 0 -- -- 45
2019-08-17 15:00:00 36.2 19 Nordeste 47 Nordeste 0 -- -- 31
2019-08-17 14:00:00 34.2 31 Nordeste 49 Nordeste 0 -- -- 32
2019-08-17 13:00:00 33.9 32 Nordeste 56 Nordeste 0 -- -- 39
2019-08-17 12:00:00 33 32 Nordeste 55 Nordeste 0 -- -- 41
2019-08-17 11:00:00 29.5 32 Nordeste 54 Nordeste 0 -- -- 52
2019-08-17 10:00:00 27.3 32 Nordeste 51 Nordeste 0 -- -- 59
2019-08-17 09:00:00 26.3 21 Nordeste 47 Nordeste 0 -- -- 59
2019-08-17 08:00:00 25.1 24 Nordeste 39 Nordeste 0 -- -- 62
2019-08-17 07:00:00 25.1 22 Nordeste 36 Norte 0 -- -- 61
2019-08-17 06:00:00 26.7 20 Nordeste 37 Nordeste 0 -- -- 50
2019-08-17 05:00:00 29.9 21 Nordeste 42 Nordeste 0 -- -- 36
2019-08-17 04:00:00 29 22 Nordeste 36 Nordeste 0 -- -- 38
2019-08-17 03:00:00 27.2 19 Nordeste 55 Nordeste 0 -- -- 47
2019-08-17 02:00:00 25.5 26 Nordeste 49 Nordeste 0 -- -- 62
2019-08-17 01:00:00 26 26 Nordeste 60 Nordeste 0 -- -- 57
2019-08-17 00:00:00 25.3 35 Nordeste 56 Nordeste 0 -- -- 65
2019-08-16 23:00:00 24.9 30 Nordeste 47 Nordeste 0 -- -- 69
2019-08-16 22:00:00 25.6 23 Nordeste 46 Norte 0 -- -- 64
2019-08-16 21:00:00 25.1 31 Norte 48 Nordeste 0 -- -- 69
2019-08-16 20:00:00 26.7 18 Nordeste 39 Nordeste 0 -- -- 65
2019-08-16 19:00:00 28.3 12 Nordeste 28 Nordeste 0 -- -- 58
2019-08-16 18:00:00 28.4 14 Sudoeste 23 Sur 0 -- -- 58
2019-08-16 17:00:00 33.1 8 Sudeste 40 Nordeste 0 -- -- 48
2019-08-16 16:00:00 33.3 19 Nordeste 38 Norte 0 -- -- 44
2019-08-16 15:00:00 28.2 11 Sur 33 Sudoeste 0 -- -- 61
2019-08-16 14:00:00 30.5 10 Sudoeste 45 Nordeste 0 -- -- 55
2019-08-16 13:00:00 33.6 18 Nordeste 39 Nordeste 0 -- -- 38
2019-08-16 12:00:00 32.3 13 Nordeste 44 Nordeste 0 -- -- 43
2019-08-16 11:00:00 28.9 22 Nordeste 36 Nordeste 0 -- -- 51
2019-08-16 10:00:00 24.2 7 Sudoeste 21 Sudoeste 0 -- -- 78
2019-08-16 09:00:00 22.5 6 Norte 19 Sudoeste 0 -- -- 84
2019-08-16 08:00:00 22.2 8 Sudoeste 28 Norte 0 -- -- 80
2019-08-16 07:00:00 21.8 18 Norte 27 Norte 0 -- -- 82
2019-08-16 06:00:00 20 3 Sudeste 12 Sudoeste 0 -- -- 90
2019-08-16 05:00:00 21.1 5 Norte 13 Nordeste 0 -- -- 87
2019-08-16 04:00:00 22.3 4 Noroeste 22 Norte 0 -- -- 84
2019-08-16 03:00:00 22.6 12 Norte 30 Norte 0 -- -- 75
2019-08-16 02:00:00 22.4 7 Norte 25 Nordeste 0 -- -- 76
2019-08-16 01:00:00 21.9 9 Sudoeste 19 Oeste 0 -- -- 86
2019-08-16 00:00:00 23.7 6 Norte 45 Nordeste 0 -- -- 71
2019-08-15 23:00:00 24.3 23 Nordeste 39 Nordeste 0 -- -- 65
2019-08-15 22:00:00 22.8 7 Sudoeste 13 Sudoeste 0 -- -- 83
2019-08-15 21:00:00 23.4 10 Sudoeste 14 Sudoeste 0 -- -- 75
2019-08-15 20:00:00 25 8 Sudoeste 27 Norte 0 -- -- 68
2019-08-15 19:00:00 27.3 10 Sudoeste 37 Norte 0 -- -- 58
2019-08-15 18:00:00 27.7 28 Norte 51 Nordeste 0 -- -- 58
2019-08-15 17:00:00 28.4 27 Nordeste 48 Norte 0 -- -- 57
2019-08-15 16:00:00 29.5 23 Norte 46 Nordeste 0 -- -- 53
2019-08-15 15:00:00 29.9 21 Norte 36 Nordeste 0 -- -- 52
2019-08-15 14:00:00 29.4 23 Norte 46 Nordeste 0 -- -- 53
2019-08-15 13:00:00 27.6 32 Nordeste 54 Nordeste 0 -- -- 58
2019-08-15 12:00:00 28.1 26 Nordeste 53 Nordeste 0 -- -- 55
2019-08-15 11:00:00 28.4 25 Nordeste 42 Nordeste 0 -- -- 51
2019-08-15 10:00:00 27.5 22 Nordeste 47 Norte 0 -- -- 46
2019-08-15 09:00:00 24.8 13 Norte 31 Norte 0 -- -- 45
2019-08-15 08:00:00 21.4 8 Noroeste 24 Noroeste 0 -- -- 77
2019-08-15 07:00:00 21.3 10 Norte 22 Norte 0 -- -- 76
2019-08-15 06:00:00 20.1 4 Noroeste 8 Noroeste 0 -- -- 85
2019-08-15 05:00:00 20.2 3 Sur 10 Nordeste 0 -- -- 78
2019-08-15 04:00:00 21.5 4 Norte 13 Norte 0 -- -- 64
2019-08-15 03:00:00 21.8 5 Nordeste 23 Norte 0 -- -- 65
2019-08-15 02:00:00 21.7 15 Norte 37 Norte 0 -- -- 68
2019-08-15 01:00:00 21.8 24 Nordeste 44 Nordeste 0 -- -- 72
2019-08-15 00:00:00 22.3 24 Nordeste 40 Nordeste 0 -- -- 68
2019-08-14 23:00:00 22.5 19 Nordeste 34 Nordeste 0 -- -- 68
2019-08-14 22:00:00 23.1 11 Norte 24 Norte 0 -- -- 63
2019-08-14 21:00:00 23 10 Sur 23 Sudoeste 0 -- -- 74
2019-08-14 20:00:00 26.1 11 Sudoeste 35 Norte 0 -- -- 57
2019-08-14 19:00:00 28.4 22 Nordeste 50 Norte 0 -- -- 41
2019-08-14 18:00:00 28.9 27 Nordeste 51 Nordeste 0 -- -- 43
2019-08-14 17:00:00 30.6 29 Nordeste 52 Nordeste 0 -- -- 28
2019-08-14 16:00:00 30.9 27 Nordeste 42 Nordeste 0 -- -- 34
2019-08-14 15:00:00 28 10 Sur 41 Nordeste 0 -- -- 53
2019-08-14 14:00:00 29.8 26 Nordeste 49 Nordeste 0 -- -- 42
2019-08-14 13:00:00 28.5 33 Nordeste 55 Nordeste 0 -- -- 47
2019-08-14 12:00:00 28.3 28 Nordeste 50 Nordeste 0 -- -- 45
2019-08-14 11:00:00 27.4 26 Nordeste 44 Nordeste 0 -- -- 45
2019-08-14 10:00:00 26.7 21 Nordeste 36 Norte 0 -- -- 39
2019-08-14 09:00:00 24.3 17 Nordeste 35 Norte 0 -- -- 47
2019-08-14 08:00:00 21.9 18 Nordeste 36 Nordeste 0 -- -- 56
2019-08-14 07:00:00 21.9 17 Nordeste 27 Norte 0 -- -- 53
2019-08-14 06:00:00 22.2 16 Nordeste 32 Nordeste 0 -- -- 49
2019-08-14 05:00:00 21.9 15 Nordeste 35 Nordeste 0 -- -- 54
2019-08-14 04:00:00 21.7 18 Nordeste 36 Nordeste 0 -- -- 57
2019-08-14 03:00:00 21.5 21 Nordeste 44 Nordeste 0 -- -- 61
2019-08-14 02:00:00 21.3 17 Nordeste 32 Nordeste 0 -- -- 64
2019-08-14 01:00:00 21.7 25 Norte 40 Nordeste 0 -- -- 64
2019-08-14 00:00:00 21.6 21 Norte 44 Nordeste 0 -- -- 65
2019-08-13 23:00:00 22.1 24 Norte 38 Norte 0 -- -- 61
2019-08-13 22:00:00 22.5 19 Norte 37 Norte 0 -- -- 58
2019-08-13 21:00:00 22.8 25 Norte 48 Nordeste 0 -- -- 61
2019-08-13 20:00:00 24.2 32 Nordeste 69 Nordeste 0 -- -- 55
2019-08-13 19:00:00 25.5 31 Nordeste 60 Norte 0 -- -- 56
2019-08-13 18:00:00 26.4 39 Nordeste 68 Norte 0 -- -- 53
2019-08-13 17:00:00 27.2 40 Nordeste 67 Nordeste 0 -- -- 48
2019-08-13 16:00:00 27.6 38 Nordeste 68 Nordeste 0 -- -- 46
2019-08-13 15:00:00 27.7 38 Nordeste 68 Nordeste 0 -- -- 47
2019-08-13 14:00:00 27.9 43 Nordeste 72 Nordeste 0 -- -- 43
2019-08-13 13:00:00 28.9 35 Nordeste 64 Nordeste 0 -- -- 37
2019-08-13 12:00:00 27.9 41 Nordeste 69 Nordeste 0 -- -- 35
2019-08-13 11:00:00 27.3 39 Nordeste 66 Nordeste 0 -- -- 34
2019-08-13 10:00:00 25.3 37 Nordeste 62 Nordeste 0 -- -- 45
2019-08-13 09:00:00 24 28 Nordeste 49 Nordeste 0 -- -- 50
2019-08-13 08:00:00 23 30 Nordeste 51 Norte 0 -- -- 47
2019-08-13 07:00:00 24.1 27 Nordeste 46 Nordeste 0 -- -- 35
2019-08-13 06:00:00 24 22 Nordeste 50 Nordeste 0 -- -- 32
2019-08-13 05:00:00 23.9 24 Nordeste 48 Nordeste 0 -- -- 31
2019-08-13 04:00:00 22.4 30 Nordeste 48 Norte 0 -- -- 57
2019-08-13 03:00:00 23.2 27 Nordeste 45 Nordeste 0 -- -- 45
2019-08-13 02:00:00 23.1 21 Nordeste 41 Nordeste 0 -- -- 50
2019-08-13 01:00:00 24.1 27 Nordeste 45 Nordeste 0 -- -- 40
2019-08-13 00:00:00 24.8 28 Nordeste 51 Nordeste 0 -- -- 32
2019-08-12 23:00:00 24.1 29 Nordeste 48 Nordeste 0 -- -- 40
2019-08-12 22:00:00 23.9 31 Nordeste 51 Nordeste 0 -- -- 46
2019-08-12 21:00:00 24.2 28 Nordeste 55 Nordeste 0 -- -- 44
2019-08-12 20:00:00 26 28 Nordeste 52 Nordeste 0 -- -- 42
2019-08-12 19:00:00 27.6 31 Nordeste 51 Norte 0 -- -- 38
2019-08-12 18:00:00 29.3 27 Nordeste 60 Nordeste 0 -- -- 30
2019-08-12 17:00:00 29.6 33 Nordeste 60 Nordeste 0 -- -- 32
2019-08-12 16:00:00 29 34 Nordeste 68 Nordeste 0 -- -- 41
2019-08-12 15:00:00 28.2 43 Nordeste 64 Nordeste 0 -- -- 46
2019-08-12 14:00:00 29.4 36 Nordeste 61 Norte 0 -- -- 41
2019-08-12 13:00:00 29 36 Nordeste 62 Nordeste 0 -- -- 42
2019-08-12 12:00:00 28.5 33 Nordeste 68 Norte 0 -- -- 44
2019-08-12 11:00:00 27.7 41 Nordeste 68 Norte 0 -- -- 40
2019-08-12 10:00:00 27.1 37 Nordeste 67 Nordeste 0 -- -- 39
2019-08-12 09:00:00 26.3 41 Norte 62 Nordeste 0 -- -- 41
2019-08-12 08:00:00 24.2 36 Norte 54 Norte 0 -- -- 53
2019-08-12 07:00:00 24 31 Nordeste 59 Norte 0 -- -- 53
2019-08-12 06:00:00 23.8 28 Nordeste 54 Norte 0 -- -- 52
2019-08-12 05:00:00 25.6 36 Nordeste 63 Nordeste 0 -- -- 41
2019-08-12 04:00:00 25.1 39 Norte 59 Norte 0 -- -- 43
2019-08-12 03:00:00 24.1 33 Nordeste 57 Nordeste 0 -- -- 47
2019-08-12 02:00:00 25.1 37 Norte 62 Norte 0 -- -- 38
2019-08-12 01:00:00 25.9 36 Norte 59 Nordeste 0 -- -- 28
2019-08-12 00:00:00 25.6 35 Nordeste 61 Nordeste 0 -- -- 27
2019-08-11 23:00:00 25 32 Nordeste 64 Nordeste 0 -- -- 32
2019-08-11 22:00:00 23.1 35 Nordeste 63 Nordeste 0 -- -- 62
2019-08-11 21:00:00 23.7 30 Nordeste 65 Nordeste 0 -- -- 57
2019-08-11 20:00:00 24.5 36 Nordeste 66 Nordeste 0 -- -- 60
2019-08-11 19:00:00 25.9 38 Nordeste 63 Nordeste 0 -- -- 54
2019-08-11 18:00:00 26.9 39 Nordeste 62 Norte 0 -- -- 52
2019-08-11 17:00:00 27.6 42 Nordeste 67 Nordeste 0 -- -- 45
2019-08-11 16:00:00 27.6 38 Nordeste 65 Norte 0 -- -- 56
2019-08-11 15:00:00 27.3 40 Nordeste 65 Norte 0 -- -- 58
2019-08-11 14:00:00 26.9 41 Nordeste 72 Nordeste 0 -- -- 61
2019-08-11 13:00:00 27.8 37 Nordeste 60 Norte 0 -- -- 60
2019-08-11 12:00:00 27.5 37 Norte 61 Norte 0 -- -- 57
2019-08-11 11:00:00 26.5 36 Nordeste 61 Nordeste 0 -- -- 62
2019-08-11 10:00:00 25.8 35 Nordeste 66 Norte 0 -- -- 65
2019-08-11 09:00:00 24.2 29 Nordeste 56 Norte 0 -- -- 75
2019-08-11 08:00:00 22.5 32 Nordeste 50 Nordeste 0 -- -- 83
2019-08-11 07:00:00 22.5 25 Nordeste 46 Nordeste 0 -- -- 85
2019-08-11 06:00:00 22.2 26 Nordeste 62 Norte 0 -- -- 88
2019-08-11 05:00:00 24 40 Nordeste 71 Nordeste 0 -- -- 75
2019-08-11 04:00:00 24.2 42 Nordeste 74 Nordeste 0 -- -- 74
2019-08-11 03:00:00 23.6 39 Nordeste 71 Nordeste 0 -- -- 78
2019-08-11 02:00:00 23.4 39 Nordeste 69 Nordeste 0 -- -- 81
2019-08-11 01:00:00 24.3 43 Nordeste 72 Nordeste 0 -- -- 73
2019-08-11 00:00:00 24.3 40 Nordeste 63 Nordeste 0 -- -- 73
2019-08-10 23:00:00 24.3 21 Norte 53 Nordeste 0 -- -- 72
2019-08-10 22:00:00 24.9 20 Nordeste 39 Nordeste 0 -- -- 67
2019-08-10 21:00:00 25.2 13 Norte 33 Norte 0 -- -- 68
2019-08-10 20:00:00 27.2 18 Nordeste 44 Nordeste 0 -- -- 59
2019-08-10 19:00:00 28 27 Nordeste 53 Norte 0 -- -- 57
2019-08-10 18:00:00 29.6 24 Nordeste 39 Nordeste 0 -- -- 51
2019-08-10 17:00:00 29.5 18 Nordeste 46 Nordeste 0 -- -- 56
2019-08-10 16:00:00 29 23 Nordeste 58 Nordeste 0 -- -- 57
2019-08-10 15:00:00 28.7 33 Nordeste 55 Norte 0 -- -- 59
2019-08-10 14:00:00 28.6 32 Nordeste 53 Nordeste 0 -- -- 59
2019-08-10 13:00:00 27.8 28 Nordeste 54 Nordeste 0 -- -- 61
2019-08-10 12:00:00 28.4 25 Nordeste 49 Nordeste 0 -- -- 58
2019-08-10 11:00:00 29 24 Nordeste 42 Nordeste 0 -- -- 48
2019-08-10 10:00:00 28.1 20 Nordeste 40 Nordeste 0 -- -- 44
2019-08-10 09:00:00 27.2 20 Nordeste 41 Nordeste 0 -- -- 41
2019-08-10 08:00:00 24.2 9 Este 21 Nordeste 0 -- -- 51
2019-08-10 07:00:00 24.3 6 Noroeste 35 Noroeste 0 -- -- 48
2019-08-10 06:00:00 26 16 Nordeste 40 Norte 0 -- -- 39
2019-08-10 05:00:00 24.7 12 Nordeste 31 Nordeste 0 -- -- 43
2019-08-10 04:00:00 23.6 15 Nordeste 33 Nordeste 0 -- -- 52
2019-08-10 03:00:00 23.5 24 Nordeste 43 Nordeste 0 -- -- 60
2019-08-10 02:00:00 22.9 28 Nordeste 45 Nordeste 0 -- -- 69
2019-08-10 01:00:00 23.1 22 Nordeste 41 Nordeste 0 -- -- 63
2019-08-10 00:00:00 23.6 20 Nordeste 36 Nordeste 0 -- -- 60
2019-08-09 23:00:00 23 15 Nordeste 31 Norte 0 -- -- 75
2019-08-09 22:00:00 23.6 16 Nordeste 36 Nordeste 0 -- -- 69
2019-08-09 21:00:00 24 18 Nordeste 38 Norte 0 -- -- 65
2019-08-09 20:00:00 24.3 18 Nordeste 34 Nordeste 0 -- -- 73
2019-08-09 19:00:00 25.6 22 Nordeste 39 Nordeste 0 -- -- 67
2019-08-09 18:00:00 27.2 19 Nordeste 35 Nordeste 0 -- -- 63
2019-08-09 17:00:00 27.2 18 Nordeste 37 Nordeste 0 -- -- 63
2019-08-09 16:00:00 27.3 23 Nordeste 34 Nordeste 0 -- -- 63
2019-08-09 15:00:00 27.9 19 Nordeste 34 Este 0 -- -- 59
2019-08-09 14:00:00 28.2 21 Nordeste 38 Norte 0 -- -- 59
2019-08-09 13:00:00 26 26 Nordeste 42 Nordeste 0 -- -- 65
2019-08-09 12:00:00 25.6 24 Nordeste 42 Nordeste 0 -- -- 66
2019-08-09 11:00:00 24.5 27 Nordeste 43 Nordeste 0 -- -- 71
2019-08-09 10:00:00 24.5 12 Nordeste 31 Norte 0 -- -- 70
2019-08-09 09:00:00 22.6 15 Nordeste 30 Nordeste 0 -- -- 76
2019-08-09 08:00:00 21.4 14 Norte 28 Norte 0 -- -- 79
2019-08-09 07:00:00 21.3 19 Norte 38 Nordeste 0 -- -- 79
2019-08-09 06:00:00 21.2 20 Nordeste 35 Nordeste 0 -- -- 81
2019-08-09 05:00:00 21.4 18 Nordeste 33 Nordeste 0 -- -- 81
2019-08-09 04:00:00 21.4 17 Nordeste 33 Norte 0 -- -- 82
2019-08-09 03:00:00 21.5 15 Nordeste 30 Nordeste 0 -- -- 83
2019-08-09 02:00:00 21.6 13 Nordeste 31 Nordeste 0 -- -- 82
2019-08-09 01:00:00 21.8 17 Nordeste 34 Nordeste 0 -- -- 83
2019-08-09 00:00:00 22 14 Nordeste 27 Norte 0 -- -- 82
2019-08-08 23:00:00 22.1 16 Nordeste 28 Nordeste 0 -- -- 82
2019-08-08 22:00:00 22.2 16 Nordeste 27 Nordeste 0 -- -- 81
2019-08-08 21:00:00 22.6 15 Nordeste 30 Nordeste 0 -- -- 80
2019-08-08 20:00:00 23.7 17 Nordeste 33 Nordeste 0 -- -- 74
2019-08-08 19:00:00 25.1 19 Nordeste 34 Nordeste 0 -- -- 70
2019-08-08 18:00:00 26.3 20 Nordeste 34 Nordeste 0 -- -- 65
2019-08-08 17:00:00 26.6 21 Nordeste 36 Nordeste 0 -- -- 64
2019-08-08 16:00:00 26 21 Nordeste 35 Este 0 -- -- 67
2019-08-08 15:00:00 26.4 18 Nordeste 37 Nordeste 0 -- -- 64
2019-08-08 14:00:00 26.1 22 Nordeste 41 Este 0 -- -- 66
2019-08-08 13:00:00 25.9 23 Nordeste 40 Nordeste 0 -- -- 66
2019-08-08 12:00:00 25.7 22 Nordeste 33 Nordeste 0 -- -- 67
2019-08-08 11:00:00 25.2 18 Nordeste 32 Nordeste 0 -- -- 67
2019-08-08 10:00:00 24.3 8 Noroeste 21 Norte 0 -- -- 66
2019-08-08 09:00:00 22.8 8 Norte 13 Norte 0 -- -- 68
2019-08-08 08:00:00 20.8 6 Norte 27 Nordeste 0 -- -- 79
2019-08-08 07:00:00 21 17 Nordeste 33 Nordeste 0 -- -- 80
2019-08-08 06:00:00 21 18 Nordeste 35 Nordeste 0 -- -- 80
2019-08-08 05:00:00 21 18 Nordeste 36 Nordeste 0 -- -- 81
2019-08-08 04:00:00 21.2 21 Nordeste 36 Nordeste 0 -- -- 79
2019-08-08 03:00:00 21.2 16 Nordeste 28 Nordeste 0 -- -- 79
2019-08-08 02:00:00 21.5 17 Norte 34 Nordeste 0 -- -- 80
2019-08-08 01:00:00 21.7 18 Nordeste 39 Nordeste 0 -- -- 81
2019-08-08 00:00:00 22.2 23 Nordeste 43 Nordeste 0 -- -- 74
2019-08-07 23:00:00 22.2 21 Nordeste 43 Nordeste 0 -- -- 75
2019-08-07 22:00:00 22.6 21 Nordeste 33 Norte 0 -- -- 73
2019-08-07 21:00:00 23.4 14 Norte 35 Norte 0 -- -- 68
2019-08-07 20:00:00 25 17 Nordeste 37 Norte 0 -- -- 64
2019-08-07 19:00:00 25.9 24 Nordeste 40 Nordeste 0 -- -- 62
2019-08-07 18:00:00 26.6 23 Nordeste 44 Nordeste 0 -- -- 59
2019-08-07 17:00:00 25.9 30 Nordeste 50 Nordeste 0 -- -- 61
2019-08-07 16:00:00 26.6 31 Nordeste 49 Nordeste 0 -- -- 60
2019-08-07 15:00:00 26.9 25 Nordeste 45 Nordeste 0 -- -- 60
2019-08-07 14:00:00 27.7 23 Nordeste 45 Norte 0 -- -- 55
2019-08-07 13:00:00 26.8 24 Nordeste 44 Nordeste 0 -- -- 57
2019-08-07 12:00:00 27.4 23 Norte 42 Nordeste 0 -- -- 52
2019-08-07 11:00:00 25.8 24 Nordeste 39 Nordeste 0 -- -- 62
2019-08-07 10:00:00 25.1 21 Norte 37 Norte 0 -- -- 61
2019-08-07 09:00:00 23.1 18 Norte 35 Norte 0 -- -- 67
2019-08-07 08:00:00 21.4 16 Norte 29 Nordeste 0 -- -- 74
2019-08-07 07:00:00 21.3 14 Norte 30 Norte 0 -- -- 74
2019-08-07 06:00:00 21.4 13 Norte 34 Norte 0 -- -- 69
2019-08-07 05:00:00 21.5 15 Nordeste 28 Norte 0 -- -- 72
2019-08-07 04:00:00 21.7 9 Norte 37 Norte 0 -- -- 70
2019-08-07 03:00:00 22.2 24 Norte 43 Nordeste 0 -- -- 66
2019-08-07 02:00:00 21.9 20 Norte 43 Nordeste 0 -- -- 71
2019-08-07 01:00:00 22.3 23 Norte 36 Norte 0 -- -- 69
2019-08-07 00:00:00 23.2 22 Norte 34 Norte 0 -- -- 59
2019-08-06 23:00:00 23.3 15 Nordeste 35 Norte 0 -- -- 57
2019-08-06 22:00:00 24.3 13 Norte 31 Norte 0 -- -- 45
2019-08-06 21:00:00 24.1 16 Norte 33 Nordeste 0 -- -- 57
2019-08-06 20:00:00 25.7 7 Sudeste 27 Sudoeste 0 -- -- 62
2019-08-06 19:00:00 26.7 15 Noroeste 40 Sudeste 0 -- -- 57
2019-08-06 18:00:00 27.9 14 Noroeste 58 Norte 0 -- -- 53
2019-08-06 17:00:00 28.5 12 Sur 43 Noroeste 0 -- -- 53
2019-08-06 16:00:00 27.9 17 Sudoeste 34 Norte 0 -- -- 54
2019-08-06 15:00:00 28.6 12 Sur 34 Sur 0 -- -- 54
2019-08-06 14:00:00 28.9 11 Sudoeste 48 Nordeste 0 -- -- 52
2019-08-06 13:00:00 28.4 27 Nordeste 46 Nordeste 0 -- -- 49
2019-08-06 12:00:00 27.1 28 Nordeste 46 Nordeste 0 -- -- 53
2019-08-06 11:00:00 26.3 26 Nordeste 46 Nordeste 0 -- -- 58
2019-08-06 10:00:00 25.3 16 Norte 34 Norte 0 -- -- 58
2019-08-06 09:00:00 23.7 12 Noroeste 34 Norte 0 -- -- 64
2019-08-06 08:00:00 20.8 2 Noroeste 32 Norte 0 -- -- 79
2019-08-06 07:00:00 22.1 15 Norte 45 Nordeste 0 -- -- 67
2019-08-06 06:00:00 22.1 24 Nordeste 49 Nordeste 0 -- -- 69
2019-08-06 05:00:00 23 34 Nordeste 57 Nordeste 0 -- -- 63
2019-08-06 04:00:00 22.7 32 Nordeste 52 Nordeste 0 -- -- 65
2019-08-06 03:00:00 22.8 28 Nordeste 57 Norte 0 -- -- 67
2019-08-06 02:00:00 23.1 31 Norte 58 Norte 0 -- -- 65
2019-08-06 01:00:00 23.7 23 Nordeste 47 Nordeste 0 -- -- 60
2019-08-06 00:00:00 25 28 Nordeste 46 Norte 0 -- -- 51
2019-08-05 23:00:00 23.1 23 Nordeste 44 Nordeste 0 -- -- 67
2019-08-05 22:00:00 23.4 25 Nordeste 48 Norte 0 -- -- 65
2019-08-05 21:00:00 23.8 30 Nordeste 51 Norte 0 -- -- 66
2019-08-05 20:00:00 26.1 28 Nordeste 52 Nordeste 0 -- -- 56
2019-08-05 19:00:00 27 28 Nordeste 48 Nordeste 0 -- -- 55
2019-08-05 18:00:00 28.5 22 Nordeste 40 Nordeste 0 -- -- 51
2019-08-05 17:00:00 28.9 31 Nordeste 52 Norte 0 -- -- 48
2019-08-05 16:00:00 29.5 30 Nordeste 52 Nordeste 0 -- -- 45
2019-08-05 15:00:00 30.1 25 Nordeste 51 Norte 0 -- -- 40
2019-08-05 14:00:00 29.8 26 Nordeste 48 Norte 0 -- -- 40
2019-08-05 13:00:00 27.1 30 Nordeste 56 Nordeste 0 -- -- 54
2019-08-05 12:00:00 26.2 36 Nordeste 60 Nordeste 0 -- -- 57
2019-08-05 11:00:00 26.2 31 Nordeste 53 Nordeste 0 -- -- 58
2019-08-05 10:00:00 24.7 27 Nordeste 51 Norte 0 -- -- 64
2019-08-05 09:00:00 23.7 8 Oeste 44 Norte 0 -- -- 60
2019-08-05 08:00:00 22.2 9 Norte 50 Nordeste 0 -- -- 63
2019-08-05 07:00:00 22.1 26 Nordeste 53 Nordeste 0 -- -- 67
2019-08-05 06:00:00 22 23 Nordeste 46 Nordeste 0 -- -- 71
2019-08-05 05:00:00 21.9 14 Norte 32 Noroeste 0 -- -- 69
2019-08-05 04:00:00 21.4 7 Noroeste 47 Norte 0 -- -- 70
2019-08-05 03:00:00 22.7 30 Norte 56 Norte 0 -- -- 61
2019-08-05 02:00:00 22.3 30 Nordeste 54 Nordeste 0 -- -- 64
2019-08-05 01:00:00 22 23 Nordeste 52 Norte 0 -- -- 70
2019-08-05 00:00:00 22.2 30 Nordeste 52 Nordeste 0 -- -- 68
2019-08-04 23:00:00 22.4 25 Nordeste 46 Norte 0 -- -- 68
2019-08-04 22:00:00 22.5 24 Nordeste 50 Norte 0 -- -- 65
2019-08-04 21:00:00 22.9 30 Nordeste 58 Nordeste 0 -- -- 62
2019-08-04 20:00:00 24.1 32 Nordeste 58 Norte 0 -- -- 61
2019-08-04 19:00:00 25.6 36 Nordeste 55 Norte 0 -- -- 54
2019-08-04 18:00:00 26.3 35 Nordeste 58 Nordeste 0 -- -- 54
2019-08-04 17:00:00 27.2 31 Nordeste 62 Nordeste 0 -- -- 51
2019-08-04 16:00:00 27.8 35 Nordeste 63 Nordeste 0 -- -- 48
2019-08-04 15:00:00 28.1 32 Nordeste 53 Nordeste 0 -- -- 53
2019-08-04 14:00:00 28.2 30 Nordeste 49 Nordeste 0 -- -- 47
2019-08-04 13:00:00 27.7 32 Nordeste 54 Norte 0 -- -- 47
2019-08-04 12:00:00 26.2 33 Norte 53 Norte 0 -- -- 50
2019-08-04 11:00:00 25.6 27 Nordeste 58 Norte 0 -- -- 55
2019-08-04 10:00:00 24.1 29 Nordeste 57 Nordeste 0 -- -- 59
2019-08-04 09:00:00 22.5 12 Norte 28 Este 0 -- -- 68
2019-08-04 08:00:00 20.1 10 Norte 24 Norte 0 -- -- 75
2019-08-04 07:00:00 20.2 12 Norte 34 Norte 0 -- -- 70
2019-08-04 06:00:00 20.8 21 Norte 35 Norte 0 -- -- 67
2019-08-04 05:00:00 20.4 14 Norte 37 Norte 0 -- -- 68
2019-08-04 04:00:00 20.7 15 Norte 29 Norte 0 -- -- 68
2019-08-04 03:00:00 20.9 19 Norte 35 Norte 0 -- -- 66
2019-08-04 02:00:00 21 19 Norte 41 Norte 0 -- -- 68
2019-08-04 01:00:00 21.3 23 Norte 37 Norte 0 -- -- 66
2019-08-04 00:00:00 21.6 23 Norte 33 Nordeste 0 -- -- 66
2019-08-03 23:00:00 21.8 21 Norte 45 Norte 0 -- -- 65
2019-08-03 22:00:00 21.8 25 Norte 47 Nordeste 0 -- -- 66
2019-08-03 21:00:00 22.2 25 Norte 45 Nordeste 0 -- -- 67
2019-08-03 20:00:00 23.9 26 Nordeste 44 Norte 0 -- -- 61
2019-08-03 19:00:00 25.6 26 Norte 49 Norte 0 -- -- 54
2019-08-03 18:00:00 26.4 30 Nordeste 53 Nordeste 0 -- -- 52
2019-08-03 17:00:00 27 35 Nordeste 59 Nordeste 0 -- -- 50
2019-08-03 16:00:00 27.3 35 Nordeste 56 Nordeste 0 -- -- 47
2019-08-03 15:00:00 26.9 31 Nordeste 52 Nordeste 0 -- -- 52
2019-08-03 14:00:00 27 21 Nordeste 51 Norte 0 -- -- 52
2019-08-03 13:00:00 26.4 28 Nordeste 51 Nordeste 0 -- -- 54
2019-08-03 12:00:00 25.7 30 Nordeste 50 Norte 0 -- -- 56
2019-08-03 11:00:00 25.3 23 Nordeste 44 Nordeste 0 -- -- 57
2019-08-03 10:00:00 24.3 17 Norte 36 Nordeste 0 -- -- 59
2019-08-03 09:00:00 22.4 15 Norte 32 Norte 0 -- -- 65
2019-08-03 08:00:00 20.7 16 Norte 42 Nordeste 0 -- -- 71
2019-08-03 07:00:00 20.6 21 Norte 37 Nordeste 0 -- -- 71
2019-08-03 06:00:00 20.4 18 Nordeste 36 Norte 0 -- -- 73
2019-08-03 05:00:00 20.7 19 Nordeste 36 Nordeste 0 -- -- 74
2019-08-03 04:00:00 20.8 19 Nordeste 44 Nordeste 0 -- -- 74
2019-08-03 03:00:00 20.9 22 Nordeste 48 Nordeste 0 -- -- 75
2019-08-03 02:00:00 21.1 26 Nordeste 44 Nordeste 0 -- -- 71
2019-08-03 01:00:00 21.2 21 Nordeste 47 Nordeste 0 -- -- 73
2019-08-03 00:00:00 21.5 26 Nordeste 51 Nordeste 0 -- -- 70
2019-08-02 23:00:00 21.8 26 Nordeste 49 Norte 0 -- -- 69
2019-08-02 22:00:00 22 24 Norte 38 Norte 0 -- -- 68
2019-08-02 21:00:00 22.8 15 Norte 40 Nordeste 0 -- -- 64
2019-08-02 20:00:00 24.3 24 Norte 50 Norte 0 -- -- 60
2019-08-02 19:00:00 25.5 31 Nordeste 57 Nordeste 0 -- -- 57
2019-08-02 18:00:00 26.5 29 Nordeste 49 Nordeste 0 -- -- 56
2019-08-02 17:00:00 28.2 13 Nordeste 34 Este 0 -- -- 51
2019-08-02 16:00:00 28.1 19 Norte 50 Nordeste 0 -- -- 47
2019-08-02 15:00:00 27.5 30 Nordeste 56 Nordeste 0 -- -- 51
2019-08-02 14:00:00 27.3 30 Nordeste 54 Norte 0 -- -- 52
2019-08-02 13:00:00 26.6 33 Nordeste 50 Nordeste 0 -- -- 53
2019-08-02 12:00:00 26.6 23 Nordeste 45 Nordeste 0 -- -- 55
2019-08-02 11:00:00 25.3 23 Nordeste 41 Nordeste 0 -- -- 55
2019-08-02 10:00:00 23.7 24 Nordeste 44 Nordeste 0 -- -- 60
2019-08-02 09:00:00 22.2 24 Nordeste 42 Nordeste 0 -- -- 67
2019-08-02 08:00:00 20.8 19 Nordeste 34 Nordeste 0 -- -- 72
2019-08-02 07:00:00 20.5 10 Nordeste 37 Norte 0 -- -- 72
2019-08-02 06:00:00 20.7 14 Norte 38 Norte 0 -- -- 71
2019-08-02 05:00:00 21.1 23 Norte 41 Norte 0 -- -- 68
2019-08-02 04:00:00 20.9 23 Norte 42 Norte 0 -- -- 68
2019-08-02 03:00:00 20.8 20 Norte 39 Nordeste 0 -- -- 69
2019-08-02 02:00:00 21 24 Nordeste 44 Norte 0 -- -- 70
2019-08-02 01:00:00 21.1 20 Norte 37 Norte 0 -- -- 70
2019-08-02 00:00:00 21.4 19 Norte 34 Norte 0 -- -- 68
2019-08-01 23:00:00 21.7 19 Norte 36 Norte 0 -- -- 64
2019-08-01 22:00:00 22.2 21 Norte 34 Nordeste 0 -- -- 65
2019-08-01 21:00:00 22.5 20 Nordeste 42 Norte 0 -- -- 63
2019-08-01 20:00:00 24 26 Nordeste 50 Nordeste 0 -- -- 59
2019-08-01 19:00:00 25.6 24 Nordeste 51 Norte 0 -- -- 52
2019-08-01 18:00:00 26.5 29 Nordeste 51 Nordeste 0 -- -- 51
2019-08-01 17:00:00 28.2 10 Este 30 Sudoeste 0 -- -- 49
2019-08-01 16:00:00 26.5 9 Sudoeste 40 Sudeste 0 -- -- 58
2019-08-01 15:00:00 27.4 11 Noroeste 47 Norte 0 -- -- 52
2019-08-01 14:00:00 27.6 27 Nordeste 49 Nordeste 0 -- -- 47
2019-08-01 13:00:00 26.6 27 Nordeste 46 Nordeste 0 -- -- 52
2019-08-01 12:00:00 26 28 Nordeste 45 Norte 0 -- -- 49
2019-08-01 11:00:00 24.9 25 Nordeste 42 Norte 0 -- -- 56
2019-08-01 10:00:00 24.2 10 Norte 35 Norte 0 -- -- 58
2019-08-01 09:00:00 22.1 7 Noroeste 18 Norte 0 -- -- 65
2019-08-01 08:00:00 19 6 Norte 13 Este 0 -- -- 72
2019-08-01 07:00:00 19 6 Nordeste 14 Norte 0 -- -- 73
2019-08-01 06:00:00 20.8 8 Norte 23 Nordeste 0 -- -- 65
2019-08-01 05:00:00 20.4 8 Nordeste 22 Nordeste 0 -- -- 66
2019-08-01 04:00:00 20.5 7 Norte 19 Nordeste 0 -- -- 64
2019-08-01 03:00:00 20.5 6 Norte 17 Nordeste 0 -- -- 62
2019-08-01 02:00:00 20.9 8 Norte 29 Norte 0 -- -- 62
2019-08-01 01:00:00 21.3 17 Norte 39 Norte 0 -- -- 61
2019-08-01 00:00:00 21.6 19 Nordeste 33 Nordeste 0 -- -- 63
2019-07-31 23:00:00 21.6 21 Nordeste 35 Nordeste 0 -- -- 61
2019-07-31 22:00:00 21.8 19 Nordeste 35 Nordeste 0 -- -- 64
2019-07-31 21:00:00 22.4 18 Nordeste 31 Nordeste 0 -- -- 60
2019-07-31 20:00:00 24.2 8 Sur 28 Sudoeste 0 -- -- 56
2019-07-31 19:00:00 26 15 Sudoeste 30 Sudoeste 0 -- -- 54
2019-07-31 18:00:00 26.4 18 Sudoeste 34 Sudoeste 0 -- -- 53
2019-07-31 17:00:00 27.8 17 Este 39 Noroeste 0 -- -- 44
2019-07-31 16:00:00 28.1 21 Nordeste 47 Nordeste 0 -- -- 47
2019-07-31 15:00:00 27.7 14 Sudoeste 31 Sudoeste 0 -- -- 52
2019-07-31 14:00:00 26.3 18 Sudoeste 35 Sudoeste 0 -- -- 54
2019-07-31 13:00:00 26.2 17 Sur 41 Nordeste 0 -- -- 53
2019-07-31 12:00:00 26 6 Sudoeste 47 Nordeste 0 -- -- 48
2019-07-31 11:00:00 24.5 30 Norte 49 Norte 0 -- -- 52
2019-07-31 10:00:00 23.9 25 Norte 48 Norte 0 -- -- 52
2019-07-31 09:00:00 22.6 19 Norte 48 Norte 0 -- -- 57
2019-07-31 08:00:00 20.8 16 Norte 41 Nordeste 0 -- -- 62
2019-07-31 07:00:00 21 19 Norte 41 Norte 0 -- -- 60
2019-07-31 06:00:00 21.2 18 Norte 49 Nordeste 0 -- -- 62
2019-07-31 05:00:00 21.1 24 Norte 46 Norte 0 -- -- 60
2019-07-31 04:00:00 21.7 18 Norte 45 Nordeste 0 -- -- 61
2019-07-31 03:00:00 21.5 17 Norte 40 Norte 0 -- -- 60
2019-07-31 02:00:00 22 25 Norte 53 Norte 0 -- -- 58
2019-07-31 01:00:00 21.3 28 Norte 50 Norte 0 -- -- 65
2019-07-31 00:00:00 21.3 22 Norte 47 Norte 0 -- -- 66
2019-07-30 23:00:00 22.3 33 Norte 49 Norte 0 -- -- 56
2019-07-30 22:00:00 22.5 27 Norte 55 Nordeste 0 -- -- 60
2019-07-30 21:00:00 23.1 35 Norte 59 Nordeste 0 -- -- 56
2019-07-30 20:00:00 23.6 31 Norte 51 Nordeste 0 -- -- 59
2019-07-30 19:00:00 24.8 32 Norte 59 Norte 0 -- -- 55
2019-07-30 18:00:00 26.2 35 Norte 49 Norte 0 -- -- 50
2019-07-30 17:00:00 27 23 Sudoeste 41 Noroeste 0 -- -- 59
2019-07-30 16:00:00 28.2 15 Sur 59 Nordeste 0 -- -- 54
2019-07-30 15:00:00 26.9 34 Nordeste 62 Norte 0 -- -- 54
2019-07-30 14:00:00 26.3 42 Norte 64 Norte 0 -- -- 52
2019-07-30 13:00:00 25.7 39 Nordeste 59 Nordeste 0 -- -- 57
2019-07-30 12:00:00 24.7 36 Nordeste 62 Norte 0 -- -- 61
2019-07-30 11:00:00 24 38 Nordeste 66 Norte 0 -- -- 65
2019-07-30 10:00:00 24.6 34 Nordeste 55 Nordeste 0 -- -- 61
2019-07-30 09:00:00 23.3 25 Nordeste 58 Nordeste 0 -- -- 66
2019-07-30 08:00:00 21.6 33 Nordeste 55 Nordeste 0 -- -- 75
2019-07-30 07:00:00 22.2 29 Nordeste 61 Norte 0 -- -- 73
2019-07-30 06:00:00 23.3 37 Norte 59 Norte 0 -- -- 61
2019-07-30 05:00:00 22.5 31 Nordeste 59 Nordeste 0 -- -- 68
2019-07-30 04:00:00 23 34 Nordeste 60 Norte 0 -- -- 66
2019-07-30 03:00:00 23.1 36 Norte 61 Norte 0 -- -- 65
2019-07-30 02:00:00 23.3 33 Nordeste 66 Norte 0 -- -- 65
2019-07-30 01:00:00 23.4 36 Norte 64 Norte 0 -- -- 64
2019-07-30 00:00:00 23.3 36 Norte 60 Nordeste 0 -- -- 67
2019-07-29 23:00:00 23.3 44 Norte 76 Norte 0 -- -- 66
2019-07-29 22:00:00 23.6 36 Norte 67 Nordeste 0 -- -- 58
2019-07-29 21:00:00 23.2 35 Nordeste 60 Norte 0 -- -- 60
2019-07-29 20:00:00 24.6 38 Nordeste 66 Norte 0 -- -- 55
2019-07-29 19:00:00 26.3 39 Nordeste 65 Nordeste 0 -- -- 46
2019-07-29 18:00:00 27.1 30 Nordeste 58 Nordeste 0 -- -- 48
2019-07-29 17:00:00 28.3 24 Norte 59 Nordeste 0 -- -- 46
2019-07-29 16:00:00 28.3 42 Nordeste 68 Nordeste 0 -- -- 47
2019-07-29 15:00:00 29 36 Nordeste 65 Nordeste 0 -- -- 43
2019-07-29 14:00:00 27.9 37 Nordeste 58 Nordeste 0 -- -- 49
2019-07-29 13:00:00 27.1 36 Nordeste 59 Nordeste 0 -- -- 50
2019-07-29 12:00:00 26 37 Nordeste 63 Nordeste 0 -- -- 50
2019-07-29 11:00:00 25 32 Nordeste 55 Norte 0 -- -- 54
2019-07-29 10:00:00 24.5 26 Nordeste 45 Norte 0 -- -- 57
2019-07-29 09:00:00 23.8 9 Sudoeste 21 Norte 0 -- -- 61
2019-07-29 08:00:00 21.8 19 Norte 36 Norte 0 -- -- 65
2019-07-29 07:00:00 21.3 19 Norte 39 Norte 0 -- -- 68
2019-07-29 06:00:00 21.3 21 Norte 36 Nordeste 0 -- -- 69
2019-07-29 05:00:00 21.5 19 Norte 34 Norte 0 -- -- 69
2019-07-29 04:00:00 21.5 22 Nordeste 41 Norte 0 -- -- 68
2019-07-29 03:00:00 21.6 18 Nordeste 36 Norte 0 -- -- 69
2019-07-29 02:00:00 22 21 Norte 37 Norte 0 -- -- 66
2019-07-29 01:00:00 22.1 19 Nordeste 33 Norte 0 -- -- 66
2019-07-29 00:00:00 22.2 16 Nordeste 36 Nordeste 0 -- -- 65
2019-07-28 23:00:00 22.8 19 Nordeste 39 Nordeste 0 -- -- 66
2019-07-28 22:00:00 22.9 18 Nordeste 35 Norte 0 -- -- 63
2019-07-28 21:00:00 23.2 21 Norte 44 Nordeste 0 -- -- 64
2019-07-28 20:00:00 25.1 23 Nordeste 46 Norte 0 -- -- 60
2019-07-28 19:00:00 26.1 31 Norte 56 Nordeste 0 -- -- 56
2019-07-28 18:00:00 27.1 30 Nordeste 54 Nordeste 0 -- -- 57
2019-07-28 17:00:00 27.3 17 Sudoeste 38 Sur 0 -- -- 63
2019-07-28 16:00:00 28.2 13 Sur 48 Norte 0 -- -- 62
2019-07-28 15:00:00 28.2 28 Norte 58 Norte 0 -- -- 58
2019-07-28 14:00:00 28.2 35 Nordeste 60 Nordeste 0 -- -- 60
2019-07-28 13:00:00 28.4 31 Nordeste 52 Nordeste 0 -- -- 57
2019-07-28 12:00:00 27.1 32 Nordeste 54 Nordeste 0 -- -- 60
2019-07-28 11:00:00 25.9 29 Nordeste 51 Nordeste 0 -- -- 66
2019-07-28 10:00:00 25.1 31 Nordeste 49 Nordeste 0 -- -- 67
2019-07-28 09:00:00 23.6 28 Norte 53 Norte 0 -- -- 71
2019-07-28 08:00:00 22 31 Norte 56 Nordeste 0 -- -- 73
2019-07-28 07:00:00 21.7 34 Nordeste 63 Nordeste 0 -- -- 76
2019-07-28 06:00:00 21.9 34 Nordeste 68 Nordeste 0 -- -- 76
2019-07-28 05:00:00 21.8 32 Nordeste 55 Nordeste 0 -- -- 74
2019-07-28 04:00:00 22 31 Nordeste 55 Nordeste 0 -- -- 74
2019-07-28 03:00:00 21.8 35 Nordeste 61 Norte 0 -- -- 74
2019-07-28 02:00:00 21.8 38 Norte 66 Nordeste 0 -- -- 74
2019-07-28 01:00:00 21.3 37 Nordeste 61 Nordeste 0 -- -- 70
2019-07-28 00:00:00 21.2 35 Nordeste 56 Nordeste 0 -- -- 72
2019-07-27 23:00:00 21.6 33 Nordeste 48 Norte 0 -- -- 71
2019-07-27 22:00:00 22 24 Nordeste 45 Nordeste 0 -- -- 66
2019-07-26 11:00:00 -- -- -- -- -- -- -- -- --
2019-07-26 10:00:00 -- -- -- -- -- -- -- -- --
2019-07-26 09:00:00 -- -- -- -- -- -- -- -- --
2019-07-26 08:00:00 -- -- -- -- -- -- -- -- --
2019-07-26 07:00:00 26 21 Nordeste 50 Norte 0 -- -- 51
2019-07-26 06:00:00 25 23 Nordeste 46 Nordeste 0 -- -- 56
2019-07-26 05:00:00 24 28 Nordeste 46 Norte 0 -- -- 63
2019-07-26 04:00:00 24.6 29 Nordeste 49 Nordeste 0 -- -- 60
2019-07-26 03:00:00 23.7 30 Nordeste 49 Nordeste 0 -- -- 65
2019-07-26 02:00:00 25.4 35 Nordeste 64 Nordeste 0 -- -- 56
2019-07-26 01:00:00 25.3 30 Nordeste 53 Nordeste 0 -- -- 47
2019-07-26 00:00:00 24.7 28 Nordeste 49 Nordeste 0 -- -- 51
2019-07-25 23:00:00 26.1 26 Nordeste 58 Nordeste 0 -- -- 43
2019-07-25 22:00:00 26.4 31 Nordeste 52 Nordeste 0 -- -- 31
2019-07-25 21:00:00 27.7 29 Nordeste 54 Nordeste 0 -- -- 24
2019-07-25 20:00:00 29.2 28 Nordeste 52 Norte 0 -- -- 25
2019-07-25 19:00:00 29.5 26 Nordeste 55 Nordeste 0 -- -- 34
2019-07-25 18:00:00 30.6 38 Nordeste 58 Nordeste 0 -- -- 28
2019-07-25 17:00:00 31.4 38 Nordeste 59 Nordeste 0 -- -- 28
2019-07-25 16:00:00 30.3 37 Nordeste 60 Nordeste 0 -- -- 36
2019-07-25 15:00:00 31.1 35 Nordeste 57 Nordeste 0 -- -- 30
2019-07-25 14:00:00 32.7 36 Nordeste 59 Nordeste 0 -- -- 23
2019-07-25 13:00:00 31.3 36 Nordeste 58 Norte 0 -- -- 26
2019-07-25 12:00:00 31.8 33 Nordeste 52 Nordeste 0 -- -- 22
2019-07-25 11:00:00 30 35 Nordeste 63 Nordeste 0 -- -- 21
2019-07-25 10:00:00 29.4 26 Nordeste 48 Nordeste 0 -- -- 22
2019-07-25 09:00:00 27.9 22 Nordeste 36 Nordeste 0 -- -- 26
2019-07-25 08:00:00 25.4 21 Nordeste 41 Norte 0 -- -- 30
2019-07-25 07:00:00 24.6 18 Nordeste 41 Nordeste 0 -- -- 33
2019-07-25 06:00:00 24.9 19 Nordeste 36 Nordeste 0 -- -- 33
2019-07-25 05:00:00 25.1 24 Nordeste 44 Nordeste 0 -- -- 35
2019-07-25 04:00:00 25.4 25 Nordeste 45 Nordeste 0 -- -- 34
2019-07-25 03:00:00 25.1 24 Nordeste 48 Nordeste 0 -- -- 36
2019-07-25 02:00:00 26.2 26 Nordeste 44 Norte 0 -- -- 28
2019-07-25 01:00:00 25.8 22 Nordeste 39 Nordeste 0 -- -- 29
2019-07-25 00:00:00 21.8 12 Sur 23 Sudoeste 0 -- -- 88
2019-07-24 23:00:00 22.7 10 Sudoeste 23 Norte 0 -- -- 78
2019-07-24 22:00:00 22.7 14 Norte 49 Nordeste 0 -- -- 67
2019-07-24 21:00:00 22.9 28 Nordeste 46 Norte 0 -- -- 69
2019-07-24 20:00:00 24.9 23 Nordeste 46 Norte 0 -- -- 61
2019-07-24 19:00:00 24.9 30 Nordeste 55 Nordeste 0 -- -- 64
2019-07-24 18:00:00 27.9 12 Norte 32 Nordeste 0 -- -- 52
2019-07-24 17:00:00 27.7 15 Sur 43 Norte 0 -- -- 57
2019-07-24 16:00:00 34.1 27 Norte 53 Norte 0 -- -- 25
2019-07-24 15:00:00 29.5 27 Nordeste 48 Nordeste 0 -- -- 48
2019-07-24 14:00:00 27.1 20 Sur 32 Sur 0 -- -- 67
2019-07-24 13:00:00 30.2 17 Nordeste 44 Nordeste 0 -- -- 46
2019-07-24 12:00:00 27.2 23 Nordeste 48 Nordeste 0 -- -- 56
2019-07-24 11:00:00 25 24 Nordeste 42 Norte 0 -- -- 62
2019-07-24 10:00:00 25.4 6 Este 26 Norte 0 -- -- 58
2019-07-24 09:00:00 22.6 10 Norte 24 Norte 0 -- -- 66
2019-07-24 08:00:00 20.6 11 Norte 26 Norte 0 -- -- 72
2019-07-24 07:00:00 20.7 15 Norte 34 Norte 0 -- -- 73
2019-07-24 06:00:00 20.7 9 Noroeste 30 Noroeste 0 -- -- 73
2019-07-24 05:00:00 20.5 13 Norte 46 Nordeste 0 -- -- 74
2019-07-24 04:00:00 20.6 21 Nordeste 44 Nordeste 0 -- -- 74
2019-07-24 03:00:00 20.7 16 Norte 36 Nordeste 0 -- -- 72
2019-07-24 02:00:00 21 15 Norte 36 Nordeste 0 -- -- 69
2019-07-24 01:00:00 21.2 17 Norte 43 Norte 0 -- -- 69
2019-07-24 00:00:00 21.7 18 Norte 46 Norte 0 -- -- 65
2019-07-23 23:00:00 21.4 30 Norte 48 Norte 0 -- -- 69
2019-07-23 22:00:00 22.1 17 Norte 29 Norte 0 -- -- 66
2019-07-23 21:00:00 22.6 4 Sur 20 Noroeste 0 -- -- 66
2019-07-23 20:00:00 25.4 16 Norte 32 Norte 0 -- -- 55
2019-07-23 19:00:00 26.2 23 Norte 54 Nordeste 0 -- -- 53
2019-07-23 18:00:00 26.5 33 Nordeste 56 Nordeste 0 -- -- 54
2019-07-23 17:00:00 26.7 34 Nordeste 59 Nordeste 0 -- -- 52
2019-07-23 16:00:00 26.8 32 Nordeste 59 Nordeste 0 -- -- 53
2019-07-23 15:00:00 26.7 31 Nordeste 55 Nordeste 0 -- -- 55
2019-07-23 14:00:00 27 28 Nordeste 52 Nordeste 0 -- -- 53
2019-07-23 13:00:00 25.9 26 Nordeste 51 Norte 0 -- -- 56
2019-07-23 12:00:00 25 31 Nordeste 57 Nordeste 0 -- -- 58
2019-07-23 11:00:00 24.4 28 Nordeste 51 Norte 0 -- -- 59
2019-07-23 10:00:00 23.8 21 Norte 45 Norte 0 -- -- 60
2019-07-23 09:00:00 22.3 18 Norte 37 Norte 0 -- -- 66
2019-07-23 08:00:00 19.4 6 Norte 20 Norte 0 -- -- 80
2019-07-23 07:00:00 19 7 Nordeste 21 Norte 0 -- -- 76
2019-07-23 06:00:00 20.4 18 Norte 34 Norte 0 -- -- 71
2019-07-23 05:00:00 20.5 24 Norte 45 Norte 0 -- -- 70
2019-07-23 04:00:00 20.7 31 Norte 51 Norte 0 -- -- 71
2019-07-23 03:00:00 20.8 19 Norte 38 Norte 0 -- -- 70
2019-07-23 02:00:00 21 20 Norte 46 Nordeste 0 -- -- 69
2019-07-23 01:00:00 20.9 26 Norte 47 Norte 0 -- -- 71
2019-07-23 00:00:00 20.9 19 Nordeste 37 Norte 0 -- -- 71
2019-07-22 23:00:00 21.1 19 Norte 33 Norte 0 -- -- 71
2019-07-22 22:00:00 21.4 15 Nordeste 29 Nordeste 0 -- -- 70
2019-07-22 21:00:00 22 18 Norte 38 Norte 0 -- -- 70
2019-07-22 20:00:00 23.7 23 Norte 51 Norte 0 -- -- 65
2019-07-22 19:00:00 24.7 27 Nordeste 48 Nordeste 0 -- -- 63
2019-07-22 18:00:00 25.5 27 Nordeste 52 Nordeste 0 -- -- 59
2019-07-22 17:00:00 26.6 32 Nordeste 54 Nordeste 0 -- -- 57
2019-07-22 16:00:00 27.1 35 Nordeste 58 Nordeste 0 -- -- 53
2019-07-22 15:00:00 27.4 33 Nordeste 58 Nordeste 0 -- -- 54
2019-07-22 14:00:00 27.3 31 Nordeste 55 Nordeste 0 -- -- 54
2019-07-22 13:00:00 26.5 35 Nordeste 60 Nordeste 0 -- -- 56
2019-07-22 12:00:00 25.8 33 Nordeste 56 Nordeste 0 -- -- 57
2019-07-22 11:00:00 24.4 31 Nordeste 57 Norte 0 -- -- 60
2019-07-22 10:00:00 22.9 32 Nordeste 50 Norte 0 -- -- 66
2019-07-22 09:00:00 21.9 26 Norte 42 Norte 0 -- -- 70
2019-07-22 08:00:00 20.7 23 Norte 43 Norte 0 -- -- 74
2019-07-22 07:00:00 20.5 18 Norte 40 Norte 0 -- -- 74
2019-07-22 06:00:00 20.6 19 Norte 35 Norte 0 -- -- 73
2019-07-22 05:00:00 20.9 21 Norte 37 Norte 0 -- -- 73
2019-07-22 04:00:00 20.9 21 Norte 46 Norte 0 -- -- 74
2019-07-22 03:00:00 20.8 22 Norte 50 Norte 0 -- -- 75
2019-07-22 02:00:00 20.8 21 Nordeste 41 Nordeste 0 -- -- 75
2019-07-22 01:00:00 21 16 Norte 39 Norte 0 -- -- 75
2019-07-22 00:00:00 21.3 17 Nordeste 42 Norte 0 -- -- 74
2019-07-21 23:00:00 21.6 24 Norte 42 Norte 0 -- -- 72
2019-07-21 22:00:00 21.7 21 Nordeste 43 Nordeste 0 -- -- 72
2019-07-21 21:00:00 22.3 24 Norte 45 Norte 0 -- -- 70
2019-07-21 20:00:00 23.9 28 Nordeste 55 Nordeste 0 -- -- 64
2019-07-21 19:00:00 24.9 31 Nordeste 48 Nordeste 0 -- -- 61
2019-07-21 18:00:00 26 27 Nordeste 56 Nordeste 0 -- -- 57
2019-07-21 17:00:00 26.4 32 Nordeste 63 Nordeste 0 -- -- 57
2019-07-21 16:00:00 26.6 33 Nordeste 56 Nordeste 0 -- -- 58
2019-07-21 15:00:00 26.7 32 Nordeste 57 Nordeste 0 -- -- 57
2019-07-21 14:00:00 26.1 36 Nordeste 56 Nordeste 0 -- -- 58
2019-07-21 13:00:00 26.6 33 Nordeste 58 Nordeste 0 -- -- 57
2019-07-21 12:00:00 26.2 27 Nordeste 51 Nordeste 0 -- -- 59
2019-07-21 11:00:00 25 29 Nordeste 45 Norte 0 -- -- 61
2019-07-21 10:00:00 23.7 24 Nordeste 46 Nordeste 0 -- -- 66
2019-07-21 09:00:00 22.1 20 Nordeste 44 Nordeste 0 -- -- 73
2019-07-21 08:00:00 21 23 Nordeste 45 Nordeste 0 -- -- 76
2019-07-21 07:00:00 21 24 Nordeste 45 Nordeste 0 -- -- 77
2019-07-21 06:00:00 21.1 22 Nordeste 50 Nordeste 0 -- -- 76
2019-07-21 05:00:00 21.2 30 Nordeste 53 Norte 0 -- -- 75
2019-07-21 04:00:00 21.1 28 Nordeste 50 Nordeste 0 -- -- 79
2019-07-21 03:00:00 21.4 26 Nordeste 47 Nordeste 0 -- -- 77
2019-07-21 02:00:00 21.6 27 Nordeste 58 Nordeste 0 -- -- 73
2019-07-21 01:00:00 22 31 Nordeste 60 Nordeste 0 -- -- 71
2019-07-21 00:00:00 22 35 Nordeste 56 Nordeste 0 -- -- 70
2019-07-20 23:00:00 22.4 30 Nordeste 56 Nordeste 0 -- -- 68
2019-07-20 22:00:00 22.3 28 Nordeste 48 Nordeste 0 -- -- 70
2019-07-20 21:00:00 22.8 24 Norte 60 Nordeste 0 -- -- 66
2019-07-20 20:00:00 23.9 36 Nordeste 62 Nordeste 0 -- -- 62
2019-07-20 19:00:00 25.7 29 Nordeste 53 Nordeste 0 -- -- 57
2019-07-20 18:00:00 27.3 24 Norte 44 Noroeste 0 -- -- 51
2019-07-20 17:00:00 27.6 23 Nordeste 57 Nordeste 0 -- -- 51
2019-07-20 16:00:00 27.3 35 Nordeste 54 Nordeste 0 -- -- 53
2019-07-20 15:00:00 26.8 40 Nordeste 56 Nordeste 0 -- -- 55
2019-07-20 14:00:00 26.5 31 Nordeste 54 Nordeste 0 -- -- 56
2019-07-20 13:00:00 26.3 31 Nordeste 50 Nordeste 0 -- -- 55
2019-07-20 12:00:00 25.6 28 Nordeste 50 Norte 0 -- -- 61
2019-07-20 11:00:00 25.4 24 Nordeste 49 Nordeste 0 -- -- 60
2019-07-20 10:00:00 23.7 24 Nordeste 44 Nordeste 0 -- -- 67
2019-07-20 09:00:00 22.9 22 Norte 38 Nordeste 0 -- -- 67
2019-07-20 08:00:00 21.3 18 Norte 32 Norte 0 -- -- 74
2019-07-20 07:00:00 21.3 7 Oeste 31 Nordeste 0 -- -- 73
2019-07-20 06:00:00 21.4 13 Norte 44 Norte 0 -- -- 72
2019-07-20 05:00:00 21.7 24 Nordeste 43 Norte 0 -- -- 70
2019-07-20 04:00:00 21.6 20 Norte 41 Nordeste 0 -- -- 68
2019-07-20 03:00:00 21.1 26 Nordeste 52 Nordeste 0 -- -- 74
2019-07-20 02:00:00 21.7 25 Nordeste 49 Norte 0 -- -- 71
2019-07-20 01:00:00 22.6 30 Nordeste 56 Nordeste 0 -- -- 67
2019-07-20 00:00:00 22.7 34 Norte 57 Norte 0 -- -- 65
2019-07-19 23:00:00 22.5 31 Nordeste 60 Norte 0 -- -- 65
2019-07-19 22:00:00 22.7 28 Nordeste 58 Norte 0 -- -- 64
2019-07-19 21:00:00 22.7 27 Nordeste 51 Norte 0 -- -- 66
2019-07-19 20:00:00 24.6 24 Nordeste 40 Norte 0 -- -- 59
2019-07-19 19:00:00 26.6 18 Norte 46 Norte 0 -- -- 49
2019-07-19 18:00:00 26.6 32 Nordeste 50 Nordeste 0 -- -- 49
2019-07-19 17:00:00 27.2 10 Oeste 37 Sudoeste 0 -- -- 55
2019-07-19 16:00:00 26.9 21 Sudoeste 47 Sudoeste 0 -- -- 56
2019-07-19 15:00:00 27.7 31 Norte 59 Nordeste 0 -- -- 48
2019-07-19 14:00:00 27.1 39 Norte 71 Norte 0 -- -- 46
2019-07-19 13:00:00 26.8 37 Nordeste 61 Norte 0 -- -- 47
2019-07-19 12:00:00 26.7 29 Norte 53 Norte 0 -- -- 46
2019-07-19 11:00:00 24.8 19 Sudoeste 32 Sudoeste 0 -- -- 58
2019-07-19 10:00:00 24.8 14 Norte 32 Nordeste 0 -- -- 50
2019-07-19 09:00:00 22.3 4 Noroeste 9 Noroeste 0 -- -- 66
2019-07-19 08:00:00 19.4 7 Norte 15 Noroeste 0 -- -- 74
2019-07-19 07:00:00 19.6 4 Nordeste 22 Nordeste 0 -- -- 69
2019-07-19 06:00:00 19.3 0 Calma 38 Norte 0 -- -- 69
2019-07-19 05:00:00 20.9 21 Norte 38 Norte 0 -- -- 65
2019-07-19 04:00:00 21 12 Norte 31 Nordeste 0 -- -- 62
2019-07-19 03:00:00 21.2 10 Norte 39 Norte 0 -- -- 62
2019-07-19 02:00:00 21.5 17 Norte 39 Norte 0 -- -- 62
2019-07-19 01:00:00 21.5 14 Norte 44 Nordeste 0 -- -- 64
2019-07-19 00:00:00 21.9 8 Noroeste 41 Norte 0 -- -- 61